Time;durP1;ratioP1;P1;durP2;ratioP2;P2;SDS_P1;SDS_P2;PMS_P1;PMS_P2;Temp;Humidity;BMP_temperature;BMP_pressure;BME280_temperature;BME280_humidity;BME280_pressure;Samples;Min_cycle;Max_cycle;Signal;HPM_P1;HPM_P2
2023/07/19 00:01:50;;;;;;;3.43;3.13;;;18.80;61.10;;;;;;5099686;28;20933;-73
2023/07/19 00:04:15;;;;;;;2.73;2.07;;;18.80;61.50;;;;;;5098927;28;20480;-71
2023/07/19 00:06:41;;;;;;;4.20;2.47;;;18.70;61.80;;;;;;5099171;28;20208;-72
2023/07/19 00:09:06;;;;;;;4.00;2.03;;;18.70;62.20;;;;;;5098546;28;20622;-70
2023/07/19 00:11:32;;;;;;;3.80;2.43;;;18.70;62.70;;;;;;5087436;28;20195;-71
2023/07/19 00:13:58;;;;;;;2.73;2.30;;;18.70;63.00;;;;;;5099611;28;20205;-72
2023/07/19 00:16:23;;;;;;;3.30;2.10;;;18.60;63.40;;;;;;5099502;28;20186;-69
2023/07/19 00:18:49;;;;;;;2.27;2.00;;;18.60;63.80;;;;;;5098842;28;20603;-71
2023/07/19 00:21:14;;;;;;;2.87;2.00;;;18.50;64.30;;;;;;5100390;28;20641;-70
2023/07/19 00:23:41;;;;;;;2.63;2.30;;;18.50;64.90;;;;;;5099220;28;20307;-70
2023/07/19 00:26:06;;;;;;;4.30;2.97;;;18.50;65.70;;;;;;5068892;28;20275;-70
2023/07/19 00:28:32;;;;;;;3.13;2.70;;;18.50;66.50;;;;;;5095762;28;20423;-72
2023/07/19 00:31:04;;;;;;;3.50;2.30;;;18.50;67.00;;;;;;5097283;28;20293;-70
2023/07/19 00:33:30;;;;;;;3.10;2.40;;;18.40;67.40;;;;;;5080611;28;20600;-70
2023/07/19 00:35:55;;;;;;;3.70;1.97;;;18.40;68.00;;;;;;5098693;28;20418;-70
2023/07/19 00:38:21;;;;;;;2.13;1.73;;;18.30;68.40;;;;;;5099220;28;20391;-70
2023/07/19 00:40:48;;;;;;;5.80;3.27;;;18.30;68.60;;;;;;5085231;28;20547;-72
2023/07/19 00:43:14;;;;;;;2.70;2.13;;;18.20;69.10;;;;;;5088413;28;20179;-71
2023/07/19 00:45:51;;;;;;;4.57;3.20;;;18.30;69.60;;;;;;5100358;28;20470;-70
2023/07/19 00:48:17;;;;;;;3.70;2.63;;;18.30;70.00;;;;;;5082395;28;20493;-70
2023/07/19 00:50:44;;;;;;;3.17;2.40;;;18.30;70.60;;;;;;5098122;28;20447;-70
2023/07/19 00:53:11;;;;;;;3.10;2.13;;;18.30;70.90;;;;;;5098977;28;20450;-71
2023/07/19 00:55:38;;;;;;;3.70;2.40;;;18.30;71.30;;;;;;5091816;28;20447;-71
2023/07/19 00:58:05;;;;;;;3.97;2.30;;;18.20;71.70;;;;;;5099562;28;20434;-71
2023/07/19 01:00:31;;;;;;;2.27;1.90;;;18.20;72.10;;;;;;5081051;28;20445;-71
2023/07/19 01:02:57;;;;;;;2.80;2.20;;;18.20;72.50;;;;;;5072883;28;20435;-71
2023/07/19 01:05:23;;;;;;;3.70;2.80;;;18.10;73.00;;;;;;5102676;28;20210;-71
2023/07/19 01:07:49;;;;;;;3.50;2.20;;;18.10;73.30;;;;;;5084425;28;20902;-70
2023/07/19 01:10:14;;;;;;;3.37;2.30;;;18.10;73.70;;;;;;5067974;28;20200;-70
2023/07/19 01:12:41;;;;;;;3.60;2.37;;;18.00;74.00;;;;;;5073350;28;20175;-70
2023/07/19 01:15:09;;;;;;;3.50;2.20;;;18.00;74.40;;;;;;5101799;28;20451;-70
2023/07/19 01:17:37;;;;;;;2.93;2.10;;;18.00;75.70;;;;;;5101512;28;20188;-71
2023/07/19 01:20:06;;;;;;;4.73;2.27;;;18.00;75.30;;;;;;5083497;28;20444;-71
2023/07/19 01:22:32;;;;;;;2.50;1.90;;;17.90;75.40;;;;;;5102421;28;20402;-71
2023/07/19 01:24:59;;;;;;;2.40;1.63;;;17.90;77.20;;;;;;5072595;28;20419;-70
2023/07/19 01:27:25;;;;;;;2.23;1.70;;;17.80;77.10;;;;;;5061892;28;20838;-69
2023/07/19 01:29:50;;;;;;;3.20;1.93;;;17.70;77.60;;;;;;5075420;28;20438;-71
2023/07/19 01:32:17;;;;;;;1.53;1.10;;;17.70;78.40;;;;;;5101016;28;20217;-70
2023/07/19 01:34:43;;;;;;;3.20;1.47;;;17.60;79.20;;;;;;5102065;28;20206;-71
2023/07/19 01:37:08;;;;;;;2.57;1.50;;;17.60;80.10;;;;;;5101546;28;20848;-71
2023/07/19 01:39:34;;;;;;;2.17;1.30;;;17.50;80.80;;;;;;5098690;28;20264;-70
2023/07/19 01:42:00;;;;;;;2.60;1.50;;;17.50;81.30;;;;;;5047572;28;20401;-71
2023/07/19 01:44:26;;;;;;;1.83;1.27;;;17.50;81.80;;;;;;5101444;28;20178;-70
2023/07/19 01:46:51;;;;;;;1.60;1.20;;;17.40;82.20;;;;;;5100483;28;20222;-69
2023/07/19 01:49:17;;;;;;;2.00;1.00;;;17.40;82.70;;;;;;5083184;28;20454;-69
2023/07/19 01:51:43;;;;;;;2.07;1.30;;;17.40;83.00;;;;;;5100880;28;20475;-71
2023/07/19 01:54:08;;;;;;;2.70;1.70;;;17.40;83.00;;;;;;5101160;28;20215;-69
2023/07/19 01:56:34;;;;;;;2.50;1.40;;;17.40;83.10;;;;;;5086275;28;20393;-70
2023/07/19 01:58:59;;;;;;;2.27;1.57;;;17.40;83.80;;;;;;5082140;28;20277;-72
2023/07/19 02:01:25;;;;;;;2.47;1.40;;;17.30;84.00;;;;;;5083246;28;20177;-71
2023/07/19 02:03:51;;;;;;;3.00;1.73;;;17.40;84.70;;;;;;5082025;28;20212;-71
2023/07/19 02:06:16;;;;;;;3.60;2.30;;;17.30;84.70;;;;;;5100126;28;20887;-70
2023/07/19 02:08:45;;;;;;;3.60;2.77;;;17.30;84.70;;;;;;5107558;28;20201;-69
2023/07/19 02:11:10;;;;;;;3.47;2.27;;;17.30;85.30;;;;;;5056555;28;20413;-73
2023/07/19 02:13:38;;;;;;;3.40;2.20;;;17.30;85.70;;;;;;5067789;28;20436;-70
2023/07/19 02:16:03;;;;;;;3.03;1.90;;;17.30;86.00;;;;;;5067296;28;20401;-69
2023/07/19 02:18:29;;;;;;;2.60;2.10;;;17.30;86.00;;;;;;5091137;28;20437;-70
2023/07/19 02:20:55;;;;;;;3.37;2.30;;;17.30;86.60;;;;;;5082125;28;20202;-69
2023/07/19 02:23:22;;;;;;;3.10;2.13;;;17.30;87.30;;;;;;5099692;28;20519;-70
2023/07/19 02:25:49;;;;;;;4.20;2.80;;;17.20;87.40;;;;;;5098887;28;20470;-71
2023/07/19 02:28:16;;;;;;;5.90;3.40;;;17.20;87.70;;;;;;5099613;28;20442;-70
2023/07/19 02:30:43;;;;;;;3.63;2.87;;;17.20;88.30;;;;;;5099789;28;20705;-70
2023/07/19 02:33:12;;;;;;;3.50;2.47;;;17.20;89.00;;;;;;5099368;28;20422;-69
2023/07/19 02:35:38;;;;;;;3.80;2.67;;;17.20;89.70;;;;;;5100234;28;20386;-70
2023/07/19 02:38:04;;;;;;;4.97;2.57;;;17.10;90.00;;;;;;5099964;28;20408;-70
2023/07/19 02:40:30;;;;;;;5.43;2.87;;;17.10;90.30;;;;;;5090355;28;20452;-69
2023/07/19 02:42:56;;;;;;;4.60;3.13;;;17.10;90.60;;;;;;5079700;28;20501;-69
2023/07/19 02:45:23;;;;;;;4.47;2.67;;;17.00;91.20;;;;;;5090495;28;20190;-70
2023/07/19 02:47:50;;;;;;;3.43;2.60;;;17.10;91.70;;;;;;5099406;28;20196;-70
2023/07/19 02:50:18;;;;;;;3.27;2.80;;;17.10;92.20;;;;;;5098812;28;20439;-70
2023/07/19 02:52:43;;;;;;;4.40;2.77;;;17.10;92.80;;;;;;5099471;28;20444;-71
2023/07/19 02:55:09;;;;;;;5.43;2.53;;;17.00;92.80;;;;;;5066620;28;20786;-69
2023/07/19 02:57:35;;;;;;;4.30;3.03;;;17.00;93.20;;;;;;5079892;28;20183;-70
2023/07/19 03:00:02;;;;;;;5.40;2.50;;;17.00;93.70;;;;;;5099040;28;20201;-69
2023/07/19 03:02:28;;;;;;;3.30;2.50;;;17.00;94.00;;;;;;5099703;28;20409;-70
2023/07/19 03:04:55;;;;;;;2.80;1.90;;;17.00;94.70;;;;;;5099603;28;20470;-70
2023/07/19 03:07:21;;;;;;;3.23;2.50;;;17.00;95.20;;;;;;5100213;28;20177;-71
2023/07/19 03:09:47;;;;;;;2.90;2.07;;;16.90;95.60;;;;;;5090076;28;20547;-70
2023/07/19 03:12:13;;;;;;;3.40;2.40;;;17.00;96.50;;;;;;5059807;28;20427;-71
2023/07/19 03:14:39;;;;;;;3.73;2.40;;;17.00;97.50;;;;;;5041513;28;20218;-71
2023/07/19 03:17:05;;;;;;;5.30;3.23;;;17.10;97.70;;;;;;5094047;28;20186;-70
2023/07/19 03:19:31;;;;;;;3.10;2.70;;;17.20;97.60;;;;;;5082069;28;20434;-72
2023/07/19 03:21:56;;;;;;;5.50;3.30;;;17.20;97.10;;;;;;5064840;28;20717;-71
2023/07/19 03:24:22;;;;;;;4.47;2.90;;;17.30;96.60;;;;;;5083501;28;20181;-70
2023/07/19 03:26:48;;;;;;;5.50;3.57;;;17.30;96.20;;;;;;5066909;28;20177;-71
2023/07/19 03:29:14;;;;;;;5.17;3.13;;;17.30;95.80;;;;;;5080165;28;20464;-71
2023/07/19 03:31:40;;;;;;;3.93;3.10;;;17.30;95.60;;;;;;5081153;28;20546;-71
2023/07/19 03:34:06;;;;;;;4.30;2.80;;;17.30;95.50;;;;;;5098823;28;20212;-70
2023/07/19 03:36:32;;;;;;;5.07;3.47;;;17.30;95.30;;;;;;5083965;28;20413;-69
2023/07/19 03:38:57;;;;;;;3.60;2.97;;;17.30;95.30;;;;;;5104578;28;20184;-71
2023/07/19 03:41:24;;;;;;;5.93;3.80;;;17.30;95.30;;;;;;5050405;28;20221;-70
2023/07/19 03:43:50;;;;;;;4.30;3.10;;;17.30;95.50;;;;;;5058645;28;20291;-70
2023/07/19 03:46:16;;;;;;;5.63;3.00;;;17.30;96.10;;;;;;5080813;28;20719;-70
2023/07/19 03:48:41;;;;;;;5.53;3.00;;;17.20;96.30;;;;;;5101945;28;20188;-69
2023/07/19 03:51:07;;;;;;;3.23;2.93;;;17.20;96.90;;;;;;5086761;28;20208;-71
2023/07/19 03:53:33;;;;;;;3.77;2.67;;;17.20;97.20;;;;;;5102878;28;20201;-69
2023/07/19 03:56:00;;;;;;;3.60;2.57;;;17.20;97.40;;;;;;5070219;28;20879;-70
2023/07/19 03:58:26;;;;;;;3.70;2.80;;;17.20;97.40;;;;;;5068106;28;20215;-70
2023/07/19 04:00:53;;;;;;;6.50;2.80;;;17.20;97.30;;;;;;5079514;28;20442;-70
2023/07/19 04:03:21;;;;;;;5.17;3.23;;;17.30;97.10;;;;;;5080750;28;20471;-70
2023/07/19 04:05:46;;;;;;;5.13;2.77;;;17.30;96.90;;;;;;5098035;28;20457;-71
2023/07/19 04:08:14;;;;;;;4.53;2.60;;;17.40;96.70;;;;;;5080010;28;20865;-70
2023/07/19 04:10:40;;;;;;;3.83;3.00;;;17.40;96.50;;;;;;5073735;28;20205;-72
2023/07/19 04:13:07;;;;;;;5.80;2.60;;;17.50;96.40;;;;;;5077558;28;20457;-71
2023/07/19 04:15:32;;;;;;;2.83;2.00;;;17.50;96.10;;;;;;5080322;28;20410;-71
2023/07/19 04:17:59;;;;;;;2.83;2.50;;;17.50;95.90;;;;;;5099629;28;20423;-72
2023/07/19 04:20:26;;;;;;;2.50;2.17;;;17.60;95.70;;;;;;5079993;28;20290;-71
2023/07/19 04:22:51;;;;;;;3.47;2.00;;;17.60;95.40;;;;;;5081006;28;20443;-71
2023/07/19 04:25:18;;;;;;;2.90;2.20;;;17.70;95.40;;;;;;5090502;28;20197;-70
2023/07/19 04:27:44;;;;;;;4.93;2.87;;;17.70;95.20;;;;;;5061751;28;20480;-71
2023/07/19 04:30:10;;;;;;;5.40;4.30;;;17.70;95.00;;;;;;5060662;28;20428;-70
2023/07/19 04:32:36;;;;;;;5.07;3.97;;;17.80;94.90;;;;;;5079335;28;20456;-70
2023/07/19 04:35:02;;;;;;;8.10;4.00;;;17.80;94.40;;;;;;5098284;28;20447;-71
2023/07/19 04:37:27;;;;;;;5.83;3.70;;;17.90;94.20;;;;;;5080648;28;20258;-70
2023/07/19 04:39:53;;;;;;;4.70;2.97;;;18.00;94.00;;;;;;5071961;28;20224;-72
2023/07/19 04:42:21;;;;;;;6.63;4.97;;;18.00;93.50;;;;;;5080552;28;20232;-71
2023/07/19 04:44:47;;;;;;;7.97;4.40;;;18.10;92.60;;;;;;5085228;28;20177;-71
2023/07/19 04:47:13;;;;;;;6.07;4.33;;;18.10;91.60;;;;;;5103341;28;20477;-71
2023/07/19 04:49:38;;;;;;;7.87;3.63;;;18.10;91.20;;;;;;5084346;28;20208;-72
2023/07/19 04:52:04;;;;;;;4.50;3.63;;;18.20;91.00;;;;;;5085800;28;20189;-70
2023/07/19 04:54:31;;;;;;;9.80;3.70;;;18.30;90.40;;;;;;5084514;28;20621;-72
2023/07/19 04:56:57;;;;;;;8.47;4.27;;;18.40;86.80;;;;;;5093048;28;20454;-70
2023/07/19 04:59:23;;;;;;;5.50;3.70;;;18.40;85.80;;;;;;5087227;28;20473;-70
2023/07/19 05:01:48;;;;;;;7.63;3.80;;;18.60;83.80;;;;;;5106175;28;20420;-71
2023/07/19 05:04:14;;;;;;;5.00;3.00;;;18.90;81.20;;;;;;5086916;28;20462;-71
2023/07/19 05:06:41;;;;;;;4.60;3.40;;;19.00;77.80;;;;;;5085070;28;20187;-71
2023/07/19 05:09:09;;;;;;;4.30;2.63;;;19.10;75.40;;;;;;5087922;28;20191;-71
2023/07/19 05:11:36;;;;;;;7.40;3.93;;;19.10;74.10;;;;;;5076592;28;20880;-71
2023/07/19 05:14:02;;;;;;;9.33;5.77;;;19.10;73.00;;;;;;5103261;28;20446;-71
2023/07/19 05:16:27;;;;;;;8.87;4.50;;;19.10;71.50;;;;;;5102311;28;20417;-72
2023/07/19 05:18:53;;;;;;;9.03;4.90;;;19.10;71.70;;;;;;5085826;28;20210;-72
2023/07/19 05:21:18;;;;;;;8.03;4.80;;;19.10;71.20;;;;;;5085584;28;20227;-71
2023/07/19 05:23:45;;;;;;;8.03;5.27;;;19.10;70.50;;;;;;5087185;28;20211;-72
2023/07/19 05:26:10;;;;;;;8.10;4.10;;;19.10;69.90;;;;;;5070868;28;20465;-71
2023/07/19 05:28:36;;;;;;;6.63;4.03;;;19.10;69.90;;;;;;5103569;28;20199;-73
2023/07/19 05:31:05;;;;;;;4.50;3.10;;;19.00;70.00;;;;;;5085679;28;20200;-71
2023/07/19 05:33:32;;;;;;;3.50;2.60;;;19.10;70.40;;;;;;5085466;28;20455;-72
2023/07/19 05:35:59;;;;;;;2.97;2.23;;;19.10;70.40;;;;;;5103987;28;20417;-72
2023/07/19 05:38:25;;;;;;;5.57;3.03;;;19.20;70.10;;;;;;5102576;28;20469;-71
2023/07/19 05:40:50;;;;;;;6.77;4.17;;;19.20;69.40;;;;;;5076791;28;20584;-71
2023/07/19 05:43:16;;;;;;;6.33;4.00;;;19.20;69.20;;;;;;5103660;28;20809;-72
2023/07/19 05:45:42;;;;;;;6.00;4.10;;;19.20;68.70;;;;;;5104879;28;20165;-75
2023/07/19 05:48:08;;;;;;;8.87;4.13;;;19.10;68.60;;;;;;5068500;28;20425;-72
2023/07/19 05:50:33;;;;;;;7.57;3.83;;;19.10;68.70;;;;;;5085539;28;20583;-72
2023/07/19 05:52:59;;;;;;;8.17;3.23;;;19.10;68.80;;;;;;5103541;28;20210;-73
2023/07/19 05:55:24;;;;;;;5.60;3.60;;;19.20;68.70;;;;;;5085336;28;20528;-73
2023/07/19 05:57:50;;;;;;;8.60;3.73;;;19.40;68.00;;;;;;5088639;28;20195;-71
2023/07/19 06:00:28;;;;;;;8.37;5.50;;;19.50;67.10;;;;;;5085642;28;20421;-72
2023/07/19 06:02:55;;;;;;;4.40;3.47;;;19.70;66.30;;;;;;5103436;28;20188;-72
2023/07/19 06:05:23;;;;;;;5.23;3.43;;;19.90;65.50;;;;;;5104595;28;20454;-70
2023/07/19 06:07:48;;;;;;;4.93;2.80;;;20.10;64.70;;;;;;5105125;28;20418;-72
2023/07/19 06:10:15;;;;;;;3.13;2.87;;;20.20;63.80;;;;;;5069297;28;20418;-72
2023/07/19 06:12:43;;;;;;;3.93;3.10;;;20.40;63.30;;;;;;5066262;28;20472;-75
2023/07/19 06:15:09;;;;;;;5.73;3.40;;;20.40;62.70;;;;;;5100631;28;20442;-74
2023/07/19 06:17:34;;;;;;;5.33;3.27;;;20.40;62.10;;;;;;5089069;28;20746;-72
2023/07/19 06:20:02;;;;;;;3.87;2.93;;;20.30;61.80;;;;;;5108752;28;20464;-73
2023/07/19 06:22:27;;;;;;;3.77;2.83;;;20.30;61.60;;;;;;5105190;28;20194;-74
2023/07/19 06:24:53;;;;;;;4.50;3.47;;;20.30;62.00;;;;;;5063070;28;20423;-74
2023/07/19 06:27:19;;;;;;;3.77;3.13;;;20.40;61.60;;;;;;5088042;28;20191;-72
2023/07/19 06:29:44;;;;;;;4.40;3.63;;;20.50;61.20;;;;;;5105756;28;20196;-74
2023/07/19 06:32:10;;;;;;;11.07;4.03;;;20.60;60.40;;;;;;5106362;28;20213;-72
2023/07/19 06:34:36;;;;;;;5.57;3.43;;;20.70;59.70;;;;;;5088323;28;20216;-71
2023/07/19 06:37:02;;;;;;;5.43;4.00;;;20.70;59.50;;;;;;5103535;28;20399;-71
2023/07/19 06:39:29;;;;;;;2.90;2.40;;;20.70;59.60;;;;;;5065918;28;20196;-72
2023/07/19 06:41:55;;;;;;;5.83;3.80;;;20.80;59.40;;;;;;5063506;28;20174;-74
2023/07/19 06:44:20;;;;;;;4.20;3.00;;;20.80;59.40;;;;;;5067537;28;20405;-74
2023/07/19 06:46:46;;;;;;;6.93;4.50;;;20.70;59.20;;;;;;5106964;28;20236;-72
2023/07/19 06:49:12;;;;;;;3.43;2.70;;;20.60;59.20;;;;;;5086792;28;20587;-73
2023/07/19 06:51:38;;;;;;;4.40;3.17;;;20.60;59.40;;;;;;5113363;28;20153;-72
2023/07/19 06:54:03;;;;;;;3.10;2.40;;;20.60;59.40;;;;;;5112113;28;20291;-73
2023/07/19 06:56:29;;;;;;;6.57;3.37;;;20.70;59.40;;;;;;5050722;28;20561;-75
2023/07/19 06:58:54;;;;;;;7.13;3.90;;;20.80;59.30;;;;;;5049635;28;20216;-73
2023/07/19 07:01:20;;;;;;;6.40;4.20;;;20.90;58.90;;;;;;5058607;28;20511;-73
2023/07/19 07:03:46;;;;;;;4.20;2.83;;;21.00;58.50;;;;;;5103777;28;20180;-72
2023/07/19 07:06:11;;;;;;;4.27;2.70;;;21.10;58.60;;;;;;5106568;28;20223;-76
2023/07/19 07:08:38;;;;;;;7.83;4.10;;;21.20;58.30;;;;;;5087767;28;20173;-75
2023/07/19 07:11:06;;;;;;;5.30;3.43;;;21.20;58.00;;;;;;5057004;28;20217;-71
2023/07/19 07:13:31;;;;;;;4.80;3.80;;;21.30;58.10;;;;;;5046414;28;20448;-74
2023/07/19 07:16:05;;;;;;;6.40;3.90;;;21.40;57.80;;;;;;5045706;28;20411;-71
2023/07/19 07:18:31;;;;;;;7.60;3.67;;;21.40;57.70;;;;;;5079892;28;20174;-71
2023/07/19 07:20:57;;;;;;;6.07;3.60;;;21.50;57.60;;;;;;5067407;28;20480;-73
2023/07/19 07:23:22;;;;;;;7.80;4.50;;;21.50;57.20;;;;;;5087577;28;20164;-73
2023/07/19 07:25:53;;;;;;;5.17;3.10;;;21.50;56.90;;;;;;5043472;28;20589;-76
2023/07/19 07:28:19;;;;;;;11.87;4.97;;;21.50;57.10;;;;;;5058125;28;20192;-74
2023/07/19 07:30:47;;;;;;;5.60;3.77;;;21.60;56.70;;;;;;5070288;28;20479;-72
2023/07/19 07:33:13;;;;;;;9.70;4.30;;;21.70;56.70;;;;;;5106290;28;20397;-73
2023/07/19 07:35:38;;;;;;;5.10;3.77;;;21.80;56.40;;;;;;5089827;28;20471;-74
2023/07/19 07:38:04;;;;;;;5.20;3.80;;;21.90;56.40;;;;;;5088219;28;20190;-72
2023/07/19 07:40:30;;;;;;;4.57;3.37;;;22.00;55.80;;;;;;5067034;28;20236;-75
2023/07/19 07:42:55;;;;;;;4.23;2.50;;;22.20;55.50;;;;;;5101513;28;20215;-74
2023/07/19 07:45:21;;;;;;;11.30;4.17;;;22.40;55.30;;;;;;5087481;28;20191;-72
2023/07/19 07:47:47;;;;;;;6.50;4.40;;;22.50;54.50;;;;;;5070601;28;20184;-74
2023/07/19 07:50:13;;;;;;;7.17;3.93;;;22.60;54.30;;;;;;5069720;28;20426;-77
2023/07/19 07:52:39;;;;;;;7.60;3.93;;;22.80;53.80;;;;;;5088598;28;20179;-72
2023/07/19 07:55:06;;;;;;;5.27;4.30;;;23.00;53.30;;;;;;5097213;28;20467;-73
2023/07/19 07:57:37;;;;;;;6.47;4.20;;;23.30;52.80;;;;;;5065413;28;20183;-77
2023/07/19 08:00:06;;;;;;;13.77;4.97;;;23.40;52.10;;;;;;5104534;28;20438;-74
2023/07/19 08:02:34;;;;;;;7.90;4.53;;;23.30;52.10;;;;;;5113241;28;20410;-76
2023/07/19 08:05:00;;;;;;;11.00;4.17;;;23.30;51.90;;;;;;5075435;28;20469;-74
2023/07/19 08:07:26;;;;;;;11.80;3.60;;;23.40;52.00;;;;;;5089856;28;20396;-75
2023/07/19 08:09:54;;;;;;;4.80;3.70;;;23.60;51.90;;;;;;5084306;28;20228;-74
2023/07/19 08:12:24;;;;;;;12.23;5.00;;;23.80;51.90;;;;;;5066769;28;20519;-72
2023/07/19 08:14:50;;;;;;;4.67;3.60;;;23.90;51.00;;;;;;5084899;28;20453;-74
2023/07/19 08:17:15;;;;;;;7.30;4.60;;;23.90;51.10;;;;;;5068306;28;20750;-73
2023/07/19 08:19:41;;;;;;;8.10;4.50;;;24.20;50.70;;;;;;5068652;28;20304;-72
2023/07/19 08:22:22;;;;;;;11.20;4.10;;;24.30;50.20;;;;;;5067756;28;20219;-74
2023/07/19 08:24:53;;;;;;;7.33;5.33;;;24.30;50.10;;;;;;5079917;28;20181;-74
2023/07/19 08:27:19;;;;;;;8.77;4.40;;;24.10;50.60;;;;;;5078548;28;20420;-73
2023/07/19 08:29:45;;;;;;;7.90;4.20;;;23.90;50.80;;;;;;5070795;28;20428;-75
2023/07/19 08:32:10;;;;;;;5.70;3.40;;;23.80;50.80;;;;;;5070917;28;20530;-73
2023/07/19 08:34:36;;;;;;;4.20;2.40;;;23.80;50.80;;;;;;5087633;28;20204;-74
2023/07/19 08:37:02;;;;;;;5.90;3.93;;;23.80;50.90;;;;;;5085920;28;20268;-74
2023/07/19 08:39:27;;;;;;;8.57;3.70;;;23.80;50.70;;;;;;5084820;28;20201;-73
2023/07/19 08:41:53;;;;;;;5.10;3.33;;;23.80;50.90;;;;;;5049281;28;20193;-75
2023/07/19 08:44:23;;;;;;;8.70;4.20;;;23.70;51.40;;;;;;5089641;28;20215;-75
2023/07/19 08:46:49;;;;;;;10.47;5.27;;;23.70;52.00;;;;;;5085283;28;20169;-76
2023/07/19 08:49:18;;;;;;;4.37;2.57;;;23.60;52.20;;;;;;5086053;28;20481;-74
2023/07/19 08:51:46;;;;;;;5.13;2.97;;;23.60;52.10;;;;;;5087061;28;20414;-74
2023/07/19 08:54:12;;;;;;;5.23;3.83;;;23.70;52.10;;;;;;5087681;28;20447;-75
2023/07/19 08:56:38;;;;;;;5.53;3.50;;;23.80;51.30;;;;;;5061900;28;20439;-77
2023/07/19 08:59:05;;;;;;;6.40;3.00;;;23.90;51.30;;;;;;5085535;28;20403;-76
2023/07/19 09:01:32;;;;;;;8.90;4.00;;;24.10;50.80;;;;;;5084602;28;20695;-75
2023/07/19 09:03:58;;;;;;;7.70;3.67;;;24.30;49.70;;;;;;5085499;28;20831;-76
2023/07/19 09:06:28;;;;;;;7.97;3.10;;;24.30;49.40;;;;;;5108188;28;20457;-74
2023/07/19 09:08:55;;;;;;;6.50;4.00;;;24.20;49.80;;;;;;5088536;28;20236;-73
2023/07/19 09:11:24;;;;;;;8.40;3.50;;;24.20;50.20;;;;;;5051335;28;20436;-75
2023/07/19 09:13:53;;;;;;;5.70;3.70;;;24.40;50.10;;;;;;5064963;28;20471;-74
2023/07/19 09:16:26;;;;;;;10.00;4.93;;;24.50;50.00;;;;;;5047553;28;20412;-74
2023/07/19 09:18:53;;;;;;;8.43;4.27;;;24.30;50.40;;;;;;5048580;28;20404;-75
2023/07/19 09:21:34;;;;;;;6.50;3.70;;;23.90;51.20;;;;;;5066530;28;20439;-74
2023/07/19 09:24:04;;;;;;;4.77;3.30;;;23.60;52.00;;;;;;5048163;28;20408;-75
2023/07/19 09:26:44;;;;;;;10.20;3.70;;;23.30;52.80;;;;;;5065596;28;20416;-75
2023/07/19 09:29:11;;;;;;;5.73;3.43;;;23.10;53.20;;;;;;5069859;28;20394;-75
2023/07/19 09:31:53;;;;;;;7.97;3.70;;;23.00;53.50;;;;;;5060762;28;20504;-75
2023/07/19 09:34:28;;;;;;;6.00;2.33;;;23.00;53.60;;;;;;5092785;28;20442;-73
2023/07/19 09:36:54;;;;;;;3.03;2.20;;;23.00;53.90;;;;;;5063095;28;20433;-78
2023/07/19 09:39:22;;;;;;;8.40;3.77;;;23.30;53.90;;;;;;5079480;28;20442;-74
2023/07/19 09:41:47;;;;;;;5.70;3.40;;;23.50;52.90;;;;;;5037997;28;20514;-76
2023/07/19 09:44:17;;;;;;;10.10;4.20;;;23.40;53.10;;;;;;5054756;28;20420;-74
2023/07/19 09:46:44;;;;;;;8.17;3.40;;;23.40;53.40;;;;;;5052128;28;20182;-74
2023/07/19 09:49:11;;;;;;;4.93;4.03;;;23.60;53.50;;;;;;5089889;28;20407;-75
2023/07/19 09:51:42;;;;;;;4.00;2.60;;;23.70;53.20;;;;;;5093849;28;20812;-75
2023/07/19 09:54:13;;;;;;;10.20;4.67;;;24.00;52.90;;;;;;5111957;28;20580;-74
2023/07/19 09:56:40;;;;;;;7.57;3.47;;;24.10;52.00;;;;;;5075019;28;20381;-74
2023/07/19 09:59:13;;;;;;;9.27;4.30;;;24.00;52.50;;;;;;5075667;28;20561;-78
2023/07/19 10:01:40;;;;;;;5.87;3.23;;;24.10;52.60;;;;;;5111609;28;20482;-73
2023/07/19 10:04:26;;;;;;;11.17;3.43;;;24.40;51.80;;;;;;5076347;28;20713;-76
2023/07/19 10:07:05;;;;;;;5.00;3.10;;;24.60;50.70;;;;;;5110608;28;20430;-74
2023/07/19 10:09:45;;;;;;;13.20;5.37;;;24.30;51.00;;;;;;5076115;28;20397;-73
2023/07/19 10:12:17;;;;;;;3.10;2.63;;;24.30;51.10;;;;;;5107703;28;20508;-75
2023/07/19 10:15:00;;;;;;;12.07;5.17;;;24.50;51.30;;;;;;5092555;28;20421;-76
2023/07/19 10:17:27;;;;;;;9.40;4.17;;;24.60;51.20;;;;;;5075875;28;20414;-73
2023/07/19 10:20:12;;;;;;;7.70;4.50;;;24.50;51.60;;;;;;5093301;28;20824;-74
2023/07/19 10:22:56;;;;;;;6.90;4.40;;;24.60;51.60;;;;;;5077358;28;20403;-74
2023/07/19 10:25:31;;;;;;;6.70;4.27;;;24.60;51.00;;;;;;5086231;28;20430;-76
2023/07/19 10:28:00;;;;;;;5.90;3.13;;;24.50;50.10;;;;;;5083912;28;20446;-77
2023/07/19 10:30:48;;;;;;;6.40;3.63;;;24.40;50.50;;;;;;5078107;28;20429;-75
2023/07/19 10:33:16;;;;;;;7.73;3.00;;;24.60;50.40;;;;;;5113032;28;20398;-74
2023/07/19 10:35:43;;;;;;;7.53;3.30;;;24.50;49.00;;;;;;5075805;28;20418;-76
2023/07/19 10:38:19;;;;;;;3.00;2.30;;;24.50;49.10;;;;;;5075870;28;20685;-78
2023/07/19 10:40:57;;;;;;;7.50;3.70;;;24.50;48.60;;;;;;5071664;28;20436;-75
2023/07/19 10:43:24;;;;;;;4.37;3.40;;;24.60;48.40;;;;;;5098506;28;20405;-76
2023/07/19 10:45:55;;;;;;;9.83;4.90;;;24.70;48.50;;;;;;5076198;28;20434;-77
2023/07/19 10:48:29;;;;;;;6.30;3.20;;;25.00;48.10;;;;;;5092857;28;20421;-75
2023/07/19 10:51:03;;;;;;;4.90;3.70;;;25.10;47.70;;;;;;5093080;28;20492;-72
2023/07/19 10:53:31;;;;;;;4.50;3.03;;;25.40;47.20;;;;;;5075536;28;20455;-78
2023/07/19 10:55:58;;;;;;;6.80;3.17;;;25.60;47.20;;;;;;5094322;28;20399;-77
2023/07/19 10:58:25;;;;;;;7.23;4.33;;;26.00;46.60;;;;;;5077317;28;20387;-76
2023/07/19 11:00:51;;;;;;;6.40;3.40;;;26.10;46.10;;;;;;5092199;28;20432;-79
2023/07/19 11:03:17;;;;;;;6.20;3.40;;;26.00;46.30;;;;;;5074352;28;20468;-77
2023/07/19 11:05:50;;;;;;;7.10;3.70;;;26.10;46.20;;;;;;5075857;28;20518;-78
2023/07/19 11:08:24;;;;;;;9.10;3.83;;;26.10;46.10;;;;;;5091917;28;20441;-73
2023/07/19 11:10:51;;;;;;;7.67;5.17;;;26.00;46.40;;;;;;5109786;28;20873;-74
2023/07/19 11:13:18;;;;;;;6.23;3.70;;;25.80;46.70;;;;;;5075299;28;20418;-76
2023/07/19 11:15:48;;;;;;;6.70;3.83;;;25.80;46.90;;;;;;5075385;28;20390;-74
2023/07/19 11:18:35;;;;;;;7.47;3.40;;;25.80;46.50;;;;;;5091819;28;20411;-75
2023/07/19 11:21:00;;;;;;;5.50;3.60;;;25.60;46.70;;;;;;5090763;28;20445;-77
2023/07/19 11:23:27;;;;;;;9.27;4.30;;;25.70;46.90;;;;;;5091928;28;20450;-74
2023/07/19 11:26:07;;;;;;;3.90;2.30;;;25.70;46.80;;;;;;5064427;28;20251;-73
2023/07/19 11:28:34;;;;;;;8.13;3.97;;;25.70;47.30;;;;;;5059793;28;20422;-74
2023/07/19 11:30:59;;;;;;;10.50;3.57;;;26.10;46.80;;;;;;5074881;28;20417;-77
2023/07/19 11:33:26;;;;;;;7.03;3.73;;;26.40;46.40;;;;;;5091186;28;20410;-76
2023/07/19 11:35:53;;;;;;;8.57;4.17;;;26.40;46.40;;;;;;5077695;28;20184;-76
2023/07/19 11:38:18;;;;;;;6.47;4.33;;;26.10;46.50;;;;;;5074261;28;20489;-75
2023/07/19 11:40:44;;;;;;;5.27;4.03;;;26.00;46.70;;;;;;5081670;28;20447;-73
2023/07/19 11:43:10;;;;;;;6.80;4.07;;;25.80;46.80;;;;;;5076290;28;20611;-74
2023/07/19 11:45:36;;;;;;;4.20;3.10;;;25.70;47.20;;;;;;5093785;28;20183;-75
2023/07/19 11:48:02;;;;;;;8.40;3.60;;;25.70;47.40;;;;;;5110823;28;20169;-77
2023/07/19 11:50:29;;;;;;;6.47;3.63;;;26.10;46.90;;;;;;5089995;28;20491;-74
2023/07/19 11:53:01;;;;;;;10.00;4.73;;;26.30;46.20;;;;;;5077130;28;20406;-77
2023/07/19 11:55:28;;;;;;;6.60;3.77;;;26.40;46.00;;;;;;5092267;28;20982;-76
2023/07/19 11:57:55;;;;;;;7.70;4.00;;;26.30;46.20;;;;;;5091583;28;20395;-77
2023/07/19 12:00:23;;;;;;;6.20;3.87;;;26.30;46.00;;;;;;5108046;28;20516;-77
2023/07/19 12:02:50;;;;;;;10.23;4.17;;;26.30;46.00;;;;;;5091019;28;20440;-77
2023/07/19 12:05:22;;;;;;;6.77;3.67;;;26.20;46.30;;;;;;5090901;28;20761;-78
2023/07/19 12:07:50;;;;;;;5.00;2.90;;;26.20;46.40;;;;;;5075267;28;20418;-75
2023/07/19 12:10:17;;;;;;;6.40;2.70;;;26.40;46.20;;;;;;5099797;28;20451;-76
2023/07/19 12:12:48;;;;;;;7.43;3.23;;;26.70;45.70;;;;;;5094134;28;20509;-77
2023/07/19 12:15:15;;;;;;;7.17;2.73;;;26.70;45.50;;;;;;5073874;28;20470;-77
2023/07/19 12:17:41;;;;;;;6.70;3.30;;;26.80;45.50;;;;;;5093325;28;20444;-77
2023/07/19 12:20:08;;;;;;;6.70;3.17;;;27.00;44.70;;;;;;5073294;28;20466;-76
2023/07/19 12:22:35;;;;;;;6.37;4.03;;;27.10;44.60;;;;;;5073675;28;20381;-76
2023/07/19 12:25:02;;;;;;;7.97;4.17;;;27.10;44.10;;;;;;5109378;28;20414;-74
2023/07/19 12:27:27;;;;;;;4.73;2.70;;;27.00;44.00;;;;;;5073678;28;20377;-75
2023/07/19 12:29:53;;;;;;;5.80;3.00;;;26.90;43.30;;;;;;5090096;28;20501;-75
2023/07/19 12:32:19;;;;;;;3.27;2.67;;;26.80;43.10;;;;;;5076680;28;20181;-77
2023/07/19 12:34:45;;;;;;;4.27;2.13;;;26.60;43.20;;;;;;5077172;28;20461;-75
2023/07/19 12:37:12;;;;;;;3.97;2.30;;;26.40;43.50;;;;;;5072712;28;20468;-75
2023/07/19 12:39:40;;;;;;;6.67;2.70;;;26.10;43.90;;;;;;5066963;28;20445;-76
2023/07/19 12:42:10;;;;;;;6.97;2.63;;;26.10;43.90;;;;;;5091460;28;20383;-77
2023/07/19 12:44:36;;;;;;;3.80;2.07;;;26.30;43.90;;;;;;5073606;28;20435;-74
2023/07/19 12:47:03;;;;;;;4.07;2.53;;;26.50;43.10;;;;;;5072788;28;20437;-74